sensor_id;sensor_type;location;lat;lon;timestamp;pressure;altitude;pressure_sealevel;temperature
60936;BMP280;46804;51.786;19.520;2022-11-20T00:03:05;98092.75;;;-3.55
60936;BMP280;46804;51.786;19.520;2022-11-20T00:07:06;98090.94;;;-3.55
60936;BMP280;46804;51.786;19.520;2022-11-20T00:11:09;98080.22;;;-3.52
60936;BMP280;46804;51.786;19.520;2022-11-20T00:15:10;98067.84;;;-3.50
60936;BMP280;46804;51.786;19.520;2022-11-20T00:19:10;98061.03;;;-3.51
60936;BMP280;46804;51.786;19.520;2022-11-20T00:23:11;98063.28;;;-3.48
60936;BMP280;46804;51.786;19.520;2022-11-20T00:27:12;98077.25;;;-3.49
60936;BMP280;46804;51.786;19.520;2022-11-20T00:31:14;98068.81;;;-3.51
60936;BMP280;46804;51.786;19.520;2022-11-20T00:35:15;98067.66;;;-3.48
60936;BMP280;46804;51.786;19.520;2022-11-20T00:39:16;98065.53;;;-3.45
60936;BMP280;46804;51.786;19.520;2022-11-20T00:43:16;98054.22;;;-3.38
60936;BMP280;46804;51.786;19.520;2022-11-20T00:47:17;98050.28;;;-3.34
60936;BMP280;46804;51.786;19.520;2022-11-20T00:51:19;98055.44;;;-3.26
60936;BMP280;46804;51.786;19.520;2022-11-20T00:55:20;98048.88;;;-3.22
60936;BMP280;46804;51.786;19.520;2022-11-20T00:59:21;98056.41;;;-3.27
60936;BMP280;46804;51.786;19.520;2022-11-20T01:03:21;98070.50;;;-3.21
60936;BMP280;46804;51.786;19.520;2022-11-20T01:07:22;98062.59;;;-3.28
60936;BMP280;46804;51.786;19.520;2022-11-20T01:11:27;98060.34;;;-3.31
60936;BMP280;46804;51.786;19.520;2022-11-20T01:15:28;98065.53;;;-3.31
60936;BMP280;46804;51.786;19.520;2022-11-20T01:19:28;98076.41;;;-3.27
60936;BMP280;46804;51.786;19.520;2022-11-20T01:23:37;98068.78;;;-3.29
60936;BMP280;46804;51.786;19.520;2022-11-20T01:27:38;98070.72;;;-3.31
60936;BMP280;46804;51.786;19.520;2022-11-20T01:31:39;98067.34;;;-3.31
60936;BMP280;46804;51.786;19.520;2022-11-20T01:35:39;98072.25;;;-3.36
60936;BMP280;46804;51.786;19.520;2022-11-20T01:39:40;98062.34;;;-3.33
60936;BMP280;46804;51.786;19.520;2022-11-20T01:43:40;98057.56;;;-3.29
60936;BMP280;46804;51.786;19.520;2022-11-20T01:47:44;98057.22;;;-3.26
60936;BMP280;46804;51.786;19.520;2022-11-20T01:51:53;98061.25;;;-3.24
60936;BMP280;46804;51.786;19.520;2022-11-20T01:55:56;98080.09;;;-3.22
60936;BMP280;46804;51.786;19.520;2022-11-20T02:00:10;98078.94;;;-3.19
60936;BMP280;46804;51.786;19.520;2022-11-20T02:04:12;98060.53;;;-3.18
60936;BMP280;46804;51.786;19.520;2022-11-20T02:08:13;98060.19;;;-3.15
60936;BMP280;46804;51.786;19.520;2022-11-20T02:12:14;98062.97;;;-3.16
60936;BMP280;46804;51.786;19.520;2022-11-20T02:16:37;98057.28;;;-3.20
60936;BMP280;46804;51.786;19.520;2022-11-20T02:20:42;98048.78;;;-3.14
60936;BMP280;46804;51.786;19.520;2022-11-20T02:24:43;98053.03;;;-3.13
60936;BMP280;46804;51.786;19.520;2022-11-20T02:28:45;98062.00;;;-3.15
60936;BMP280;46804;51.786;19.520;2022-11-20T02:32:46;98065.72;;;-3.18
60936;BMP280;46804;51.786;19.520;2022-11-20T02:36:48;98048.78;;;-3.14
60936;BMP280;46804;51.786;19.520;2022-11-20T02:40:49;98049.16;;;-3.17
60936;BMP280;46804;51.786;19.520;2022-11-20T02:44:50;98040.19;;;-3.14
60936;BMP280;46804;51.786;19.520;2022-11-20T02:48:50;98037.22;;;-3.11
60936;BMP280;46804;51.786;19.520;2022-11-20T02:52:51;98027.69;;;-3.05
60936;BMP280;46804;51.786;19.520;2022-11-20T02:56:52;98031.47;;;-3.07
60936;BMP280;46804;51.786;19.520;2022-11-20T03:00:52;98029.88;;;-3.08
60936;BMP280;46804;51.786;19.520;2022-11-20T03:04:53;98031.66;;;-3.08
60936;BMP280;46804;51.786;19.520;2022-11-20T03:08:53;98031.94;;;-3.04
60936;BMP280;46804;51.786;19.520;2022-11-20T03:12:55;98024.91;;;-3.03
60936;BMP280;46804;51.786;19.520;2022-11-20T03:16:56;98035.50;;;-3.05
60936;BMP280;46804;51.786;19.520;2022-11-20T03:20:57;98028.53;;;-3.04
60936;BMP280;46804;51.786;19.520;2022-11-20T03:24:59;98020.09;;;-3.06
60936;BMP280;46804;51.786;19.520;2022-11-20T03:29:02;98033.44;;;-3.09
60936;BMP280;46804;51.786;19.520;2022-11-20T03:33:03;98031.38;;;-3.13
60936;BMP280;46804;51.786;19.520;2022-11-20T03:37:03;98029.03;;;-3.23
60936;BMP280;46804;51.786;19.520;2022-11-20T03:41:06;98034.50;;;-3.32
60936;BMP280;46804;51.786;19.520;2022-11-20T03:45:07;98037.56;;;-3.43
60936;BMP280;46804;51.786;19.520;2022-11-20T03:49:08;98046.16;;;-3.42
60936;BMP280;46804;51.786;19.520;2022-11-20T03:53:08;98035.66;;;-3.49
60936;BMP280;46804;51.786;19.520;2022-11-20T03:57:09;98035.91;;;-3.58
60936;BMP280;46804;51.786;19.520;2022-11-20T04:01:12;98042.09;;;-3.59
60936;BMP280;46804;51.786;19.520;2022-11-20T04:05:13;98036.66;;;-3.72
60936;BMP280;46804;51.786;19.520;2022-11-20T04:09:14;98025.19;;;-3.77
60936;BMP280;46804;51.786;19.520;2022-11-20T04:13:16;98018.63;;;-3.88
60936;BMP280;46804;51.786;19.520;2022-11-20T04:17:16;98027.75;;;-3.92
60936;BMP280;46804;51.786;19.520;2022-11-20T04:21:17;98020.13;;;-3.93
60936;BMP280;46804;51.786;19.520;2022-11-20T04:25:17;98021.19;;;-4.02
60936;BMP280;46804;51.786;19.520;2022-11-20T04:29:18;98019.44;;;-4.09
60936;BMP280;46804;51.786;19.520;2022-11-20T04:33:18;98005.38;;;-4.15
60936;BMP280;46804;51.786;19.520;2022-11-20T04:37:19;98007.09;;;-4.30
60936;BMP280;46804;51.786;19.520;2022-11-20T04:41:21;98006.22;;;-4.22
60936;BMP280;46804;51.786;19.520;2022-11-20T04:45:23;98007.78;;;-4.36
60936;BMP280;46804;51.786;19.520;2022-11-20T04:49:23;98013.72;;;-4.49
60936;BMP280;46804;51.786;19.520;2022-11-20T04:53:24;98013.63;;;-4.64
60936;BMP280;46804;51.786;19.520;2022-11-20T04:57:24;98003.69;;;-4.90
60936;BMP280;46804;51.786;19.520;2022-11-20T05:01:25;98011.69;;;-5.00
60936;BMP280;46804;51.786;19.520;2022-11-20T05:05:25;98009.78;;;-5.13
60936;BMP280;46804;51.786;19.520;2022-11-20T05:09:26;98008.38;;;-5.24
60936;BMP280;46804;51.786;19.520;2022-11-20T05:13:26;98007.47;;;-5.46
60936;BMP280;46804;51.786;19.520;2022-11-20T05:17:27;98012.03;;;-5.56
60936;BMP280;46804;51.786;19.520;2022-11-20T05:21:30;98011.53;;;-5.60
60936;BMP280;46804;51.786;19.520;2022-11-20T05:25:31;98012.19;;;-5.66
60936;BMP280;46804;51.786;19.520;2022-11-20T05:29:31;98017.75;;;-5.84
60936;BMP280;46804;51.786;19.520;2022-11-20T05:33:33;98008.22;;;-5.84
60936;BMP280;46804;51.786;19.520;2022-11-20T05:37:33;98006.94;;;-5.96
60936;BMP280;46804;51.786;19.520;2022-11-20T05:41:34;98008.19;;;-5.92
60936;BMP280;46804;51.786;19.520;2022-11-20T05:45:34;98013.22;;;-5.90
60936;BMP280;46804;51.786;19.520;2022-11-20T05:49:35;98004.00;;;-5.85
60936;BMP280;46804;51.786;19.520;2022-11-20T05:53:36;97996.72;;;-5.89
60936;BMP280;46804;51.786;19.520;2022-11-20T05:57:37;97990.91;;;-5.99
60936;BMP280;46804;51.786;19.520;2022-11-20T06:01:38;97997.03;;;-5.92
60936;BMP280;46804;51.786;19.520;2022-11-20T06:05:38;97994.28;;;-5.99
60936;BMP280;46804;51.786;19.520;2022-11-20T06:09:39;97997.22;;;-6.09
60936;BMP280;46804;51.786;19.520;2022-11-20T06:13:40;98000.28;;;-6.14
60936;BMP280;46804;51.786;19.520;2022-11-20T06:17:40;98001.75;;;-6.11
60936;BMP280;46804;51.786;19.520;2022-11-20T06:21:41;98006.78;;;-6.02
60936;BMP280;46804;51.786;19.520;2022-11-20T06:25:43;97999.50;;;-6.07
60936;BMP280;46804;51.786;19.520;2022-11-20T06:29:43;97998.03;;;-6.01
60936;BMP280;46804;51.786;19.520;2022-11-20T06:33:44;98007.25;;;-5.91
60936;BMP280;46804;51.786;19.520;2022-11-20T06:37:45;98002.38;;;-5.86
60936;BMP280;46804;51.786;19.520;2022-11-20T06:41:45;98006.41;;;-5.75
60936;BMP280;46804;51.786;19.520;2022-11-20T06:45:46;97999.41;;;-5.67
60936;BMP280;46804;51.786;19.520;2022-11-20T06:49:46;97992.91;;;-5.55
60936;BMP280;46804;51.786;19.520;2022-11-20T06:53:47;97994.00;;;-5.34
60936;BMP280;46804;51.786;19.520;2022-11-20T06:57:47;97991.13;;;-5.09
60936;BMP280;46804;51.786;19.520;2022-11-20T07:01:48;97991.38;;;-4.88
60936;BMP280;46804;51.786;19.520;2022-11-20T07:05:48;97984.56;;;-4.59
60936;BMP280;46804;51.786;19.520;2022-11-20T07:09:49;97977.13;;;-4.40
60936;BMP280;46804;51.786;19.520;2022-11-20T07:13:50;97966.34;;;-4.29
60936;BMP280;46804;51.786;19.520;2022-11-20T07:17:51;97967.03;;;-4.13
60936;BMP280;46804;51.786;19.520;2022-11-20T07:21:51;97973.47;;;-3.87
60936;BMP280;46804;51.786;19.520;2022-11-20T07:25:52;97965.38;;;-3.41
60936;BMP280;46804;51.786;19.520;2022-11-20T07:29:52;97961.28;;;-3.01
60936;BMP280;46804;51.786;19.520;2022-11-20T07:33:53;97943.09;;;-2.66
60936;BMP280;46804;51.786;19.520;2022-11-20T07:37:54;97938.34;;;-2.21
60936;BMP280;46804;51.786;19.520;2022-11-20T07:41:54;97894.38;;;-2.03
60936;BMP280;46804;51.786;19.520;2022-11-20T07:45:56;97898.91;;;-1.57
60936;BMP280;46804;51.786;19.520;2022-11-20T07:49:56;97882.91;;;-1.54
60936;BMP280;46804;51.786;19.520;2022-11-20T07:53:57;97885.44;;;-1.27
60936;BMP280;46804;51.786;19.520;2022-11-20T07:57:58;97828.22;;;-1.29
60936;BMP280;46804;51.786;19.520;2022-11-20T08:01:58;97808.88;;;-0.81
60936;BMP280;46804;51.786;19.520;2022-11-20T08:06:00;97755.28;;;-0.52
60936;BMP280;46804;51.786;19.520;2022-11-20T08:10:01;97694.78;;;-0.62
60936;BMP280;46804;51.786;19.520;2022-11-20T08:14:01;97696.91;;;-0.20
60936;BMP280;46804;51.786;19.520;2022-11-20T08:18:14;97631.69;;;-0.02
60936;BMP280;46804;51.786;19.520;2022-11-20T08:22:15;97616.06;;;-0.15
60936;BMP280;46804;51.786;19.520;2022-11-20T08:26:16;97624.88;;;0.40
60936;BMP280;46804;51.786;19.520;2022-11-20T08:30:16;97586.25;;;-0.01
60936;BMP280;46804;51.786;19.520;2022-11-20T08:34:17;97556.88;;;0.33
60936;BMP280;46804;51.786;19.520;2022-11-20T08:38:18;97535.69;;;0.90
60936;BMP280;46804;51.786;19.520;2022-11-20T08:42:18;97394.47;;;1.41
60936;BMP280;46804;51.786;19.520;2022-11-20T08:46:19;97334.34;;;1.58
60936;BMP280;46804;51.786;19.520;2022-11-20T08:50:19;97300.31;;;2.03
60936;BMP280;46804;51.786;19.520;2022-11-20T08:54:20;97206.16;;;2.40
60936;BMP280;46804;51.786;19.520;2022-11-20T08:58:22;97143.91;;;2.80
60936;BMP280;46804;51.786;19.520;2022-11-20T09:02:22;97057.66;;;3.04
60936;BMP280;46804;51.786;19.520;2022-11-20T09:06:23;97028.16;;;3.56
60936;BMP280;46804;51.786;19.520;2022-11-20T09:10:24;97473.66;;;3.99
60936;BMP280;46804;51.786;19.520;2022-11-20T09:14:25;97475.28;;;3.89
60936;BMP280;46804;51.786;19.520;2022-11-20T09:18:29;97517.53;;;4.10
60936;BMP280;46804;51.786;19.520;2022-11-20T09:22:31;97542.06;;;4.27
60936;BMP280;46804;51.786;19.520;2022-11-20T09:26:33;97560.72;;;4.53
60936;BMP280;46804;51.786;19.520;2022-11-20T09:30:33;97553.00;;;4.95
60936;BMP280;46804;51.786;19.520;2022-11-20T09:34:34;97539.34;;;5.52
60936;BMP280;46804;51.786;19.520;2022-11-20T09:38:34;97563.16;;;5.73
60936;BMP280;46804;51.786;19.520;2022-11-20T09:42:49;97572.13;;;6.14
60936;BMP280;46804;51.786;19.520;2022-11-20T09:47:07;97592.06;;;5.84
60936;BMP280;46804;51.786;19.520;2022-11-20T09:55:11;97594.97;;;6.73
60936;BMP280;46804;51.786;19.520;2022-11-20T09:59:33;97602.22;;;6.87
60936;BMP280;46804;51.786;19.520;2022-11-20T10:03:56;97628.25;;;5.84
60936;BMP280;46804;51.786;19.520;2022-11-20T10:12:19;97561.09;;;8.28
60936;BMP280;46804;51.786;19.520;2022-11-20T10:16:30;97570.41;;;8.46
60936;BMP280;46804;51.786;19.520;2022-11-20T10:20:57;97596.22;;;7.22
60936;BMP280;46804;51.786;19.520;2022-11-20T10:25:14;97588.03;;;7.65
60936;BMP280;46804;51.786;19.520;2022-11-20T10:29:17;97622.75;;;7.68
60936;BMP280;46804;51.786;19.520;2022-11-20T10:33:22;97621.69;;;7.02
60936;BMP280;46804;51.786;19.520;2022-11-20T10:37:28;97610.94;;;7.85
60936;BMP280;46804;51.786;19.520;2022-11-20T10:41:41;97610.56;;;7.67
60936;BMP280;46804;51.786;19.520;2022-11-20T10:45:58;97622.75;;;7.01
60936;BMP280;46804;51.786;19.520;2022-11-20T10:50:04;97603.25;;;7.43
60936;BMP280;46804;51.786;19.520;2022-11-20T10:54:33;97565.53;;;7.67
60936;BMP280;46804;51.786;19.520;2022-11-20T11:02:48;97577.03;;;8.43
60936;BMP280;46804;51.786;19.520;2022-11-20T11:06:50;97577.34;;;7.91
60936;BMP280;46804;51.786;19.520;2022-11-20T11:10:57;97596.84;;;7.75
60936;BMP280;46804;51.786;19.520;2022-11-20T11:14:59;97576.19;;;8.23
60936;BMP280;46804;51.786;19.520;2022-11-20T11:19:04;97609.94;;;7.19
60936;BMP280;46804;51.786;19.520;2022-11-20T11:23:05;97581.75;;;7.35
60936;BMP280;46804;51.786;19.520;2022-11-20T11:27:12;97604.22;;;6.49
60936;BMP280;46804;51.786;19.520;2022-11-20T11:31:25;97689.16;;;5.34
60936;BMP280;46804;51.786;19.520;2022-11-20T11:35:27;97661.03;;;5.72
60936;BMP280;46804;51.786;19.520;2022-11-20T11:39:30;97697.75;;;4.97
60936;BMP280;46804;51.786;19.520;2022-11-20T11:43:35;97705.66;;;4.97
60936;BMP280;46804;51.786;19.520;2022-11-20T11:47:57;97729.50;;;3.90
60936;BMP280;46804;51.786;19.520;2022-11-20T11:52:16;97747.91;;;3.78
60936;BMP280;46804;51.786;19.520;2022-11-20T11:56:18;97747.00;;;3.33
60936;BMP280;46804;51.786;19.520;2022-11-20T12:00:21;97763.69;;;2.98
60936;BMP280;46804;51.786;19.520;2022-11-20T12:04:43;97772.00;;;2.48
60936;BMP280;46804;51.786;19.520;2022-11-20T12:08:52;97752.78;;;2.36
60936;BMP280;46804;51.786;19.520;2022-11-20T12:13:00;97741.97;;;2.62
60936;BMP280;46804;51.786;19.520;2022-11-20T12:17:02;97755.84;;;2.15
60936;BMP280;46804;51.786;19.520;2022-11-20T12:25:24;97756.50;;;1.87
60936;BMP280;46804;51.786;19.520;2022-11-20T12:34:08;97754.81;;;1.74
60936;BMP280;46804;51.786;19.520;2022-11-20T12:42:56;97753.09;;;1.62
60936;BMP280;46804;51.786;19.520;2022-11-20T13:04:12;97660.81;;;3.12
60936;BMP280;46804;51.786;19.520;2022-11-20T13:08:30;97639.59;;;3.47
60936;BMP280;46804;51.786;19.520;2022-11-20T13:12:56;97674.97;;;3.11
60936;BMP280;46804;51.786;19.520;2022-11-20T13:17:19;97661.59;;;3.12
60936;BMP280;46804;51.786;19.520;2022-11-20T13:21:41;97679.03;;;2.55
60936;BMP280;46804;51.786;19.520;2022-11-20T13:25:42;97683.66;;;2.42
60936;BMP280;46804;51.786;19.520;2022-11-20T13:29:57;97685.25;;;2.25
60936;BMP280;46804;51.786;19.520;2022-11-20T13:34:00;97702.09;;;2.00
60936;BMP280;46804;51.786;19.520;2022-11-20T13:38:03;97690.63;;;2.48
60936;BMP280;46804;51.786;19.520;2022-11-20T13:42:27;97663.66;;;3.22
60936;BMP280;46804;51.786;19.520;2022-11-20T13:46:43;97661.31;;;3.32
60936;BMP280;46804;51.786;19.520;2022-11-20T13:50:53;97650.91;;;3.48
60936;BMP280;46804;51.786;19.520;2022-11-20T13:55:18;97632.84;;;3.63
60936;BMP280;46804;51.786;19.520;2022-11-20T14:00:02;97640.72;;;3.51
60936;BMP280;46804;51.786;19.520;2022-11-20T14:04:08;97636.84;;;3.42
60936;BMP280;46804;51.786;19.520;2022-11-20T14:08:21;97637.78;;;3.59
60936;BMP280;46804;51.786;19.520;2022-11-20T14:12:29;97643.00;;;3.37
60936;BMP280;46804;51.786;19.520;2022-11-20T14:16:33;97675.81;;;2.24
60936;BMP280;46804;51.786;19.520;2022-11-20T14:20:34;97718.94;;;1.27
60936;BMP280;46804;51.786;19.520;2022-11-20T14:24:34;97730.69;;;0.87
60936;BMP280;46804;51.786;19.520;2022-11-20T14:28:35;97742.50;;;0.66
60936;BMP280;46804;51.786;19.520;2022-11-20T14:32:36;97750.03;;;0.43
60936;BMP280;46804;51.786;19.520;2022-11-20T14:36:37;97749.13;;;0.12
60936;BMP280;46804;51.786;19.520;2022-11-20T14:40:38;97767.06;;;-0.04
60936;BMP280;46804;51.786;19.520;2022-11-20T14:44:40;97775.34;;;-0.20
60936;BMP280;46804;51.786;19.520;2022-11-20T14:48:45;97794.25;;;-0.44
60936;BMP280;46804;51.786;19.520;2022-11-20T14:52:54;97776.19;;;-0.45
60936;BMP280;46804;51.786;19.520;2022-11-20T14:56:56;97795.25;;;-0.70
60936;BMP280;46804;51.786;19.520;2022-11-20T15:01:05;97793.84;;;-0.73
60936;BMP280;46804;51.786;19.520;2022-11-20T15:05:07;97788.00;;;-0.81
60936;BMP280;46804;51.786;19.520;2022-11-20T15:09:13;97785.78;;;-0.91
60936;BMP280;46804;51.786;19.520;2022-11-20T16:26:25;97634.81;;;-1.98
60936;BMP280;46804;51.786;19.520;2022-11-20T16:30:25;97638.78;;;-2.02
60936;BMP280;46804;51.786;19.520;2022-11-20T16:34:26;97636.75;;;-2.12
60936;BMP280;46804;51.786;19.520;2022-11-20T16:38:27;97628.53;;;-2.09
60936;BMP280;46804;51.786;19.520;2022-11-20T16:42:27;97630.91;;;-2.14
60936;BMP280;46804;51.786;19.520;2022-11-20T16:46:30;97627.66;;;-2.23
60936;BMP280;46804;51.786;19.520;2022-11-20T16:50:31;97630.69;;;-2.26
60936;BMP280;46804;51.786;19.520;2022-11-20T16:54:31;97624.84;;;-2.28
60936;BMP280;46804;51.786;19.520;2022-11-20T16:58:32;97622.63;;;-2.31
60936;BMP280;46804;51.786;19.520;2022-11-20T17:02:32;97619.63;;;-2.34
60936;BMP280;46804;51.786;19.520;2022-11-20T17:06:35;97617.19;;;-2.36
60936;BMP280;46804;51.786;19.520;2022-11-20T17:10:36;97620.38;;;-2.40
60936;BMP280;46804;51.786;19.520;2022-11-20T17:14:36;97618.00;;;-2.35
60936;BMP280;46804;51.786;19.520;2022-11-20T17:18:37;97602.94;;;-2.39
60936;BMP280;46804;51.786;19.520;2022-11-20T17:22:37;97600.72;;;-2.42
60936;BMP280;46804;51.786;19.520;2022-11-20T17:26:40;97595.09;;;-2.46
60936;BMP280;46804;51.786;19.520;2022-11-20T17:30:40;97591.50;;;-2.45
60936;BMP280;46804;51.786;19.520;2022-11-20T17:34:41;97580.31;;;-2.45
60936;BMP280;46804;51.786;19.520;2022-11-20T17:38:42;97591.47;;;-2.51
60936;BMP280;46804;51.786;19.520;2022-11-20T17:42:43;97582.63;;;-2.57
60936;BMP280;46804;51.786;19.520;2022-11-20T17:46:44;97577.81;;;-2.60
60936;BMP280;46804;51.786;19.520;2022-11-20T17:50:44;97575.59;;;-2.63
60936;BMP280;46804;51.786;19.520;2022-11-20T17:54:45;97570.56;;;-2.71
60936;BMP280;46804;51.786;19.520;2022-11-20T17:58:45;97567.72;;;-2.75
60936;BMP280;46804;51.786;19.520;2022-11-20T18:02:46;97558.50;;;-2.78
60936;BMP280;46804;51.786;19.520;2022-11-20T18:06:47;97552.06;;;-2.82
60936;BMP280;46804;51.786;19.520;2022-11-20T18:10:47;97552.03;;;-2.88
60936;BMP280;46804;51.786;19.520;2022-11-20T18:14:48;97551.44;;;-2.90
60936;BMP280;46804;51.786;19.520;2022-11-20T18:18:48;97557.22;;;-2.95
60936;BMP280;46804;51.786;19.520;2022-11-20T18:22:49;97554.75;;;-3.03
60936;BMP280;46804;51.786;19.520;2022-11-20T18:26:49;97546.31;;;-3.05
60936;BMP280;46804;51.786;19.520;2022-11-20T18:30:50;97548.91;;;-3.11
60936;BMP280;46804;51.786;19.520;2022-11-20T18:34:51;97548.66;;;-3.16
60936;BMP280;46804;51.786;19.520;2022-11-20T18:38:53;97542.22;;;-3.20
60936;BMP280;46804;51.786;19.520;2022-11-20T18:42:55;97533.44;;;-3.19
60936;BMP280;46804;51.786;19.520;2022-11-20T18:47:29;97540.69;;;-3.14
60936;BMP280;46804;51.786;19.520;2022-11-20T18:51:30;97538.13;;;-3.08
60936;BMP280;46804;51.786;19.520;2022-11-20T18:55:30;97539.53;;;-3.05
60936;BMP280;46804;51.786;19.520;2022-11-20T18:59:31;97538.56;;;-2.98
60936;BMP280;46804;51.786;19.520;2022-11-20T19:03:32;97530.59;;;-2.90
60936;BMP280;46804;51.786;19.520;2022-11-20T19:07:32;97539.47;;;-2.85
60936;BMP280;46804;51.786;19.520;2022-11-20T19:11:33;97536.28;;;-2.80
60936;BMP280;46804;51.786;19.520;2022-11-20T19:15:34;97532.28;;;-2.76
60936;BMP280;46804;51.786;19.520;2022-11-20T19:19:37;97533.88;;;-2.75
60936;BMP280;46804;51.786;19.520;2022-11-20T19:23:38;97536.09;;;-2.72
60936;BMP280;46804;51.786;19.520;2022-11-20T19:27:38;97535.13;;;-2.71
60936;BMP280;46804;51.786;19.520;2022-11-20T19:31:39;97538.91;;;-2.68
60936;BMP280;46804;51.786;19.520;2022-11-20T19:35:39;97533.91;;;-2.69
60936;BMP280;46804;51.786;19.520;2022-11-20T19:39:40;97525.69;;;-2.72
60936;BMP280;46804;51.786;19.520;2022-11-20T19:43:40;97527.66;;;-2.74
60936;BMP280;46804;51.786;19.520;2022-11-20T19:47:41;97530.47;;;-2.82
60936;BMP280;46804;51.786;19.520;2022-11-20T19:51:48;97541.47;;;-2.80
60936;BMP280;46804;51.786;19.520;2022-11-20T19:55:57;97537.66;;;-2.84
60936;BMP280;46804;51.786;19.520;2022-11-20T19:59:57;97530.00;;;-2.92
60936;BMP280;46804;51.786;19.520;2022-11-20T20:03:59;97538.38;;;-2.97
60936;BMP280;46804;51.786;19.520;2022-11-20T20:08:04;97534.75;;;-3.02
60936;BMP280;46804;51.786;19.520;2022-11-20T20:12:05;97542.69;;;-3.10
60936;BMP280;46804;51.786;19.520;2022-11-20T20:16:10;97538.50;;;-3.11
60936;BMP280;46804;51.786;19.520;2022-11-20T20:20:11;97536.50;;;-3.09
60936;BMP280;46804;51.786;19.520;2022-11-20T20:24:11;97536.88;;;-3.12
60936;BMP280;46804;51.786;19.520;2022-11-20T20:28:12;97545.84;;;-3.21
60936;BMP280;46804;51.786;19.520;2022-11-20T20:32:12;97548.44;;;-3.21
60936;BMP280;46804;51.786;19.520;2022-11-20T20:36:16;97545.41;;;-3.24
60936;BMP280;46804;51.786;19.520;2022-11-20T20:40:16;97535.94;;;-3.32
60936;BMP280;46804;51.786;19.520;2022-11-20T20:44:18;97544.56;;;-3.31
60936;BMP280;46804;51.786;19.520;2022-11-20T20:48:37;97550.53;;;-3.37
60936;BMP280;46804;51.786;19.520;2022-11-20T20:52:38;97545.28;;;-3.43
60936;BMP280;46804;51.786;19.520;2022-11-20T20:56:38;97541.25;;;-3.46
60936;BMP280;46804;51.786;19.520;2022-11-20T21:00:39;97529.63;;;-3.50
60936;BMP280;46804;51.786;19.520;2022-11-20T21:04:39;97520.81;;;-3.49
60936;BMP280;46804;51.786;19.520;2022-11-20T21:08:40;97516.81;;;-3.51
60936;BMP280;46804;51.786;19.520;2022-11-20T21:12:40;97520.78;;;-3.55
60936;BMP280;46804;51.786;19.520;2022-11-20T21:16:41;97516.53;;;-3.63
60936;BMP280;46804;51.786;19.520;2022-11-20T21:20:44;97511.00;;;-3.80
60936;BMP280;46804;51.786;19.520;2022-11-20T21:25:03;97511.56;;;-3.85
60936;BMP280;46804;51.786;19.520;2022-11-20T21:29:04;97522.75;;;-3.84
60936;BMP280;46804;51.786;19.520;2022-11-20T21:33:04;97521.38;;;-3.80
60936;BMP280;46804;51.786;19.520;2022-11-20T21:37:05;97515.38;;;-3.81
60936;BMP280;46804;51.786;19.520;2022-11-20T21:41:07;97522.69;;;-3.91
60936;BMP280;46804;51.786;19.520;2022-11-20T21:45:08;97520.41;;;-4.00
60936;BMP280;46804;51.786;19.520;2022-11-20T21:49:09;97535.75;;;-3.84
60936;BMP280;46804;51.786;19.520;2022-11-20T21:53:10;97534.94;;;-3.85
60936;BMP280;46804;51.786;19.520;2022-11-20T21:57:10;97523.94;;;-3.87
60936;BMP280;46804;51.786;19.520;2022-11-20T22:01:16;97527.50;;;-3.88
60936;BMP280;46804;51.786;19.520;2022-11-20T22:05:17;97534.13;;;-3.85
60936;BMP280;46804;51.786;19.520;2022-11-20T22:09:17;97533.31;;;-3.86
60936;BMP280;46804;51.786;19.520;2022-11-20T22:13:18;97538.50;;;-3.86
60936;BMP280;46804;51.786;19.520;2022-11-20T22:17:37;97539.50;;;-3.87
60936;BMP280;46804;51.786;19.520;2022-11-20T22:21:56;97538.91;;;-3.89
60936;BMP280;46804;51.786;19.520;2022-11-20T22:26:04;97543.78;;;-4.00
60936;BMP280;46804;51.786;19.520;2022-11-20T22:30:05;97557.50;;;-4.06
60936;BMP280;46804;51.786;19.520;2022-11-20T22:34:09;97556.50;;;-4.05
60936;BMP280;46804;51.786;19.520;2022-11-20T22:38:10;97551.69;;;-4.08
60936;BMP280;46804;51.786;19.520;2022-11-20T22:42:11;97562.00;;;-4.14
60936;BMP280;46804;51.786;19.520;2022-11-20T22:46:16;97569.28;;;-4.24
60936;BMP280;46804;51.786;19.520;2022-11-20T22:50:17;97565.25;;;-4.27
60936;BMP280;46804;51.786;19.520;2022-11-20T22:54:17;97564.47;;;-4.27
60936;BMP280;46804;51.786;19.520;2022-11-20T22:58:18;97564.63;;;-4.14
60936;BMP280;46804;51.786;19.520;2022-11-20T23:02:18;97554.47;;;-4.30
60936;BMP280;46804;51.786;19.520;2022-11-20T23:06:20;97542.44;;;-4.31
60936;BMP280;46804;51.786;19.520;2022-11-20T23:10:21;97546.16;;;-4.40
60936;BMP280;46804;51.786;19.520;2022-11-20T23:14:21;97547.88;;;-4.47
60936;BMP280;46804;51.786;19.520;2022-11-20T23:18:22;97550.63;;;-4.48
60936;BMP280;46804;51.786;19.520;2022-11-20T23:22:22;97552.34;;;-4.55
60936;BMP280;46804;51.786;19.520;2022-11-20T23:26:26;97549.81;;;-4.70
60936;BMP280;46804;51.786;19.520;2022-11-20T23:30:27;97549.59;;;-4.68
60936;BMP280;46804;51.786;19.520;2022-11-20T23:34:28;97550.53;;;-4.75
60936;BMP280;46804;51.786;19.520;2022-11-20T23:38:28;97557.94;;;-4.73
60936;BMP280;46804;51.786;19.520;2022-11-20T23:42:29;97554.28;;;-4.78
60936;BMP280;46804;51.786;19.520;2022-11-20T23:46:29;97561.78;;;-4.83
60936;BMP280;46804;51.786;19.520;2022-11-20T23:50:30;97554.75;;;-4.89
60936;BMP280;46804;51.786;19.520;2022-11-20T23:54:30;97562.63;;;-4.82
60936;BMP280;46804;51.786;19.520;2022-11-20T23:58:36;97561.34;;;-4.86
